createdAt,value
2023-12-24T00:01:14.973Z,2.50
2023-12-24T00:03:42.232Z,1.42
2023-12-24T00:06:09.723Z,0.85
2023-12-24T00:08:37.820Z,0.50
2023-12-24T00:11:05.883Z,2.70
2023-12-24T00:13:33.096Z,0.55
2023-12-24T00:15:59.824Z,0.70
2023-12-24T00:18:26.663Z,1.65
2023-12-24T00:20:53.358Z,0.10
2023-12-24T00:23:20.063Z,0.40
2023-12-24T00:25:46.818Z,0.43
2023-12-24T00:28:13.412Z,1.00
2023-12-24T00:30:40.073Z,0.75
2023-12-24T00:33:06.781Z,0.17
2023-12-24T00:35:35.235Z,0.20
2023-12-24T00:38:02.056Z,0.25
2023-12-24T00:40:28.675Z,0.40
2023-12-24T00:42:55.513Z,0.20
2023-12-24T00:45:22.255Z,0.30
2023-12-24T00:47:49.144Z,0.43
2023-12-24T00:50:16.045Z,0.65
2023-12-24T00:52:42.754Z,0.75
2023-12-24T00:55:09.692Z,0.20
2023-12-24T00:57:38.449Z,0.55
2023-12-24T01:00:08.775Z,0.85
2023-12-24T01:02:35.954Z,1.15
2023-12-24T01:05:02.922Z,1.17
2023-12-24T01:07:29.639Z,0.20
2023-12-24T01:09:56.375Z,0.95
2023-12-24T01:12:23.052Z,0.20
2023-12-24T01:14:49.719Z,0.40
2023-12-24T01:17:16.483Z,0.70
2023-12-24T01:19:45.153Z,1.75
2023-12-24T01:22:11.857Z,0.30
2023-12-24T01:24:38.436Z,0.30
2023-12-24T01:27:05.236Z,0.28
2023-12-24T01:29:31.964Z,1.23
2023-12-24T01:31:58.716Z,0.52
2023-12-24T01:34:25.499Z,0.30
2023-12-24T01:36:52.171Z,2.15
2023-12-24T01:39:20.524Z,1.02
2023-12-24T01:41:48.208Z,0.98
2023-12-24T01:44:15.168Z,0.35
2023-12-24T01:46:41.920Z,1.08
2023-12-24T01:49:09.211Z,0.45
2023-12-24T01:51:36.182Z,0.38
2023-12-24T01:54:04.812Z,1.00
2023-12-24T01:56:33.234Z,0.20
2023-12-24T01:59:00.797Z,0.35
2023-12-24T02:01:28.444Z,0.30
2023-12-24T02:03:55.979Z,1.05
2023-12-24T02:06:25.291Z,0.82
2023-12-24T02:08:52.098Z,0.90
2023-12-24T02:11:19.046Z,0.22
2023-12-24T02:13:45.770Z,0.75
2023-12-24T02:16:15.878Z,0.47
2023-12-24T02:18:42.858Z,0.32
2023-12-24T02:21:09.728Z,1.75
2023-12-24T02:23:36.468Z,0.32
2023-12-24T02:26:25.715Z,0.22
2023-12-24T02:29:00.075Z,0.20
2023-12-24T02:31:32.409Z,1.90
2023-12-24T02:34:02.952Z,3.35
2023-12-24T02:36:31.238Z,0.45
2023-12-24T02:38:58.356Z,2.05
2023-12-24T02:41:25.843Z,0.15
2023-12-24T02:43:52.600Z,0.65
2023-12-24T02:46:19.216Z,2.42
2023-12-24T02:48:46.087Z,1.20
2023-12-24T02:51:12.754Z,0.13
2023-12-24T02:53:39.692Z,0.40
2023-12-24T02:56:06.556Z,0.43
2023-12-24T02:58:33.869Z,1.83
2023-12-24T03:01:00.616Z,0.10
2023-12-24T03:03:27.390Z,2.33
2023-12-24T03:05:54.077Z,0.82
2023-12-24T03:08:22.383Z,0.10
2023-12-24T03:10:49.156Z,0.50
2023-12-24T03:13:15.760Z,0.35
2023-12-24T03:15:42.448Z,0.28
2023-12-24T03:18:09.230Z,0.80
2023-12-24T03:20:36.252Z,0.20
2023-12-24T03:23:03.150Z,2.28
2023-12-24T03:25:29.807Z,0.50
2023-12-24T03:27:56.477Z,2.05
2023-12-24T03:30:23.148Z,0.20
2023-12-24T03:32:49.850Z,0.30
2023-12-24T03:35:16.657Z,1.02
2023-12-24T03:37:43.336Z,0.30
2023-12-24T03:40:10.465Z,0.50
2023-12-24T03:42:37.108Z,0.55
2023-12-24T03:45:04.139Z,0.40
2023-12-24T03:47:30.815Z,0.70
2023-12-24T03:49:57.474Z,0.80
2023-12-24T03:52:24.175Z,0.52
2023-12-24T03:54:50.768Z,0.30
2023-12-24T03:57:17.727Z,0.70
2023-12-24T03:59:44.322Z,0.88
2023-12-24T04:02:11.025Z,0.88
2023-12-24T04:04:37.762Z,2.72
2023-12-24T04:07:04.600Z,0.43
2023-12-24T04:09:32.809Z,1.38
2023-12-24T04:11:59.521Z,1.10
2023-12-24T04:14:26.185Z,0.30
2023-12-24T04:16:52.781Z,0.20
2023-12-24T04:19:19.467Z,0.47
2023-12-24T04:21:46.126Z,0.35
2023-12-24T04:24:12.869Z,0.38
2023-12-24T04:26:39.646Z,0.57
2023-12-24T04:29:06.818Z,0.40
2023-12-24T04:31:33.851Z,0.50
2023-12-24T04:34:00.612Z,1.65
2023-12-24T04:36:27.343Z,2.30
2023-12-24T04:38:53.976Z,0.43
2023-12-24T04:41:20.987Z,0.55
2023-12-24T04:43:47.585Z,0.85
2023-12-24T04:46:14.252Z,0.52
2023-12-24T04:48:41.262Z,0.43
2023-12-24T04:51:08.030Z,0.68
2023-12-24T04:53:34.760Z,0.35
2023-12-24T04:56:01.412Z,0.75
2023-12-24T04:58:28.033Z,0.77
2023-12-24T05:00:54.723Z,0.63
2023-12-24T05:03:21.398Z,1.55
2023-12-24T05:05:48.278Z,0.68
2023-12-24T05:08:15.202Z,0.45
2023-12-24T05:10:42.394Z,1.15
2023-12-24T05:13:12.813Z,0.20
2023-12-24T05:15:39.458Z,0.85
2023-12-24T05:18:06.297Z,0.43
2023-12-24T05:20:33.079Z,0.40
2023-12-24T05:22:59.760Z,0.43
2023-12-24T05:25:26.438Z,0.25
2023-12-24T05:27:53.045Z,0.22
2023-12-24T05:30:19.745Z,0.68
2023-12-24T05:32:46.504Z,2.90
2023-12-24T05:35:13.320Z,0.70
2023-12-24T05:37:39.962Z,0.28
2023-12-24T05:40:07.078Z,0.75
2023-12-24T05:42:33.732Z,1.13
2023-12-24T05:45:00.443Z,1.42
2023-12-24T05:47:27.230Z,2.95
2023-12-24T05:49:53.917Z,0.45
2023-12-24T05:52:20.587Z,0.30
2023-12-24T05:54:47.257Z,1.88
2023-12-24T05:57:14.288Z,0.60
2023-12-24T05:59:40.957Z,0.50
2023-12-24T06:02:07.630Z,0.85
2023-12-24T06:04:34.365Z,0.50
2023-12-24T06:07:02.413Z,1.00
2023-12-24T06:09:29.093Z,0.45
2023-12-24T06:11:55.773Z,0.60
2023-12-24T06:14:22.731Z,0.82
2023-12-24T06:16:49.515Z,0.70
2023-12-24T06:19:18.233Z,0.98
2023-12-24T06:21:45.386Z,0.40
2023-12-24T06:24:12.053Z,1.05
2023-12-24T06:26:38.784Z,0.65
2023-12-24T06:29:05.685Z,0.47
2023-12-24T06:31:32.491Z,1.70
2023-12-24T06:33:59.147Z,0.82
2023-12-24T06:36:25.762Z,0.77
2023-12-24T06:38:52.409Z,1.45
2023-12-24T06:41:18.998Z,1.10
2023-12-24T06:43:45.645Z,0.50
2023-12-24T06:46:13.761Z,0.50
2023-12-24T06:48:40.956Z,1.27
2023-12-24T06:51:08.340Z,0.70
2023-12-24T06:53:35.824Z,0.40
2023-12-24T06:56:02.734Z,0.40
2023-12-24T06:58:29.432Z,0.60
2023-12-24T07:00:56.611Z,0.65
2023-12-24T07:03:23.390Z,0.68
2023-12-24T07:05:50.094Z,0.80
2023-12-24T07:08:16.804Z,0.43
2023-12-24T07:10:44.174Z,1.23
2023-12-24T07:13:11.153Z,0.90
2023-12-24T07:15:41.520Z,0.38
2023-12-24T07:18:08.459Z,1.10
2023-12-24T07:20:35.959Z,0.70
2023-12-24T07:23:03.353Z,0.98
2023-12-24T07:25:30.163Z,0.80
2023-12-24T07:27:56.846Z,1.67
2023-12-24T07:30:23.498Z,2.03
2023-12-24T07:32:50.317Z,4.22
2023-12-24T07:35:18.142Z,4.28
2023-12-24T07:37:44.790Z,2.65
2023-12-24T07:40:11.917Z,5.75
2023-12-24T07:42:38.712Z,4.15
2023-12-24T07:45:05.937Z,3.65
2023-12-24T07:47:33.049Z,4.40
2023-12-24T07:49:59.941Z,5.45
2023-12-24T07:52:26.593Z,2.97
2023-12-24T07:54:53.450Z,2.85
2023-12-24T07:57:20.401Z,2.53
2023-12-24T07:59:47.581Z,2.58
2023-12-24T08:02:14.262Z,2.05
2023-12-24T08:04:41.977Z,2.80
2023-12-24T08:07:08.784Z,4.85
2023-12-24T08:09:35.529Z,4.50
2023-12-24T08:12:02.184Z,2.72
2023-12-24T08:14:28.863Z,2.60
2023-12-24T08:16:55.457Z,3.33
2023-12-24T08:19:22.243Z,5.10
2023-12-24T08:21:48.907Z,1.52
2023-12-24T08:24:15.571Z,1.25
2023-12-24T08:26:42.388Z,1.42
2023-12-24T08:29:09.029Z,1.15
2023-12-24T08:31:35.683Z,0.90
2023-12-24T08:34:02.325Z,0.50
2023-12-24T08:36:29.232Z,1.17
2023-12-24T08:38:55.917Z,0.65
2023-12-24T08:41:22.578Z,0.30
2023-12-24T08:43:49.314Z,0.47
2023-12-24T08:46:15.991Z,0.38
2023-12-24T08:48:42.739Z,0.20
2023-12-24T08:51:09.480Z,1.08
2023-12-24T08:53:36.238Z,0.22
2023-12-24T08:56:03.148Z,0.30
2023-12-24T08:58:30.857Z,1.85
2023-12-24T09:00:58.103Z,0.95
2023-12-24T09:03:24.784Z,0.20
2023-12-24T09:05:51.464Z,0.43
2023-12-24T09:08:18.196Z,0.30
2023-12-24T09:10:44.894Z,0.20
2023-12-24T09:13:11.695Z,0.28
2023-12-24T09:15:38.611Z,0.32
2023-12-24T09:18:05.792Z,0.43
2023-12-24T09:20:32.611Z,0.63
2023-12-24T09:22:59.293Z,0.20
2023-12-24T09:25:26.943Z,0.20
2023-12-24T09:27:53.582Z,0.63
2023-12-24T09:30:20.314Z,0.85
2023-12-24T09:32:46.996Z,0.22
2023-12-24T09:35:13.793Z,0.20
2023-12-24T09:37:40.424Z,0.20
2023-12-24T09:40:08.402Z,0.40
2023-12-24T09:42:36.500Z,0.60
2023-12-24T09:45:03.221Z,0.68
2023-12-24T09:47:29.951Z,0.50
2023-12-24T09:49:59.275Z,0.75
2023-12-24T09:52:27.738Z,1.80
2023-12-24T09:54:55.097Z,0.57
2023-12-24T09:57:21.741Z,0.43
2023-12-24T09:59:49.096Z,0.32
2023-12-24T10:02:15.810Z,0.20
2023-12-24T10:04:42.540Z,0.20
2023-12-24T10:07:10.401Z,0.40
2023-12-24T10:09:46.100Z,0.05
2023-12-24T10:12:12.772Z,0.20
2023-12-24T10:14:41.214Z,0.28
2023-12-24T10:17:08.600Z,0.85
2023-12-24T10:19:38.205Z,0.20
2023-12-24T10:22:06.778Z,0.10
2023-12-24T10:24:36.152Z,0.38
2023-12-24T10:27:12.780Z,0.47
2023-12-24T10:29:41.949Z,0.22
2023-12-24T10:32:12.241Z,0.75
2023-12-24T10:34:40.596Z,0.10
2023-12-24T10:37:22.348Z,0.52
2023-12-24T10:39:51.006Z,0.50
2023-12-24T10:42:18.124Z,0.93
2023-12-24T10:44:45.072Z,0.13
2023-12-24T10:47:11.804Z,0.22
2023-12-24T10:49:39.220Z,0.20
2023-12-24T10:52:06.459Z,0.20
2023-12-24T10:54:34.520Z,0.43
2023-12-24T10:57:07.353Z,0.25
2023-12-24T10:59:55.094Z,0.63
2023-12-24T11:02:22.566Z,0.50
2023-12-24T11:04:50.502Z,1.55
2023-12-24T11:07:35.658Z,0.13
2023-12-24T11:10:03.883Z,1.65
2023-12-24T11:12:35.805Z,0.20
2023-12-24T11:15:04.280Z,0.20
2023-12-24T11:17:43.037Z,0.55
2023-12-24T11:20:29.817Z,0.10
2023-12-24T11:23:05.904Z,0.10
2023-12-24T11:25:43.838Z,0.20
2023-12-24T11:28:13.589Z,0.32
2023-12-24T11:31:07.185Z,0.20
2023-12-24T11:33:43.055Z,0.10
2023-12-24T11:36:11.070Z,0.20
2023-12-24T11:38:38.043Z,0.20
2023-12-24T11:41:08.209Z,0.28
2023-12-24T11:43:35.867Z,0.00
2023-12-24T11:46:03.862Z,0.10
2023-12-24T11:48:33.106Z,0.10
2023-12-24T11:51:04.049Z,0.20
2023-12-24T11:53:38.372Z,0.30
2023-12-24T11:56:13.653Z,0.20
2023-12-24T11:58:49.992Z,0.10
2023-12-24T12:01:25.303Z,0.10
2023-12-24T12:03:59.710Z,0.10
2023-12-24T12:06:30.022Z,0.20
2023-12-24T12:08:59.579Z,0.52
2023-12-24T12:11:26.313Z,0.30
2023-12-24T12:13:53.816Z,0.50
2023-12-24T12:16:20.426Z,0.30
2023-12-24T12:18:47.068Z,0.95
2023-12-24T12:21:13.850Z,0.28
2023-12-24T12:23:41.164Z,0.85
2023-12-24T12:26:08.593Z,0.20
2023-12-24T12:28:36.751Z,1.50
2023-12-24T12:31:03.567Z,0.05
2023-12-24T12:33:30.360Z,0.10
2023-12-24T12:35:57.204Z,0.38
2023-12-24T12:38:24.488Z,0.30
2023-12-24T12:40:52.403Z,0.45
2023-12-24T12:43:20.596Z,0.40
2023-12-24T12:45:49.922Z,0.20
2023-12-24T12:48:17.898Z,0.20
2023-12-24T12:50:44.734Z,0.50
2023-12-24T12:53:11.853Z,0.10
2023-12-24T12:55:38.726Z,0.45
2023-12-24T12:58:13.064Z,0.32
2023-12-24T13:00:39.923Z,0.20
2023-12-24T13:03:08.559Z,0.10
2023-12-24T13:05:35.793Z,0.22
2023-12-24T13:08:14.964Z,0.45
2023-12-24T13:10:43.660Z,0.30
2023-12-24T13:13:18.740Z,0.80
2023-12-24T13:18:22.738Z,0.82
2023-12-24T13:20:51.257Z,0.50
2023-12-24T13:23:26.158Z,1.10
2023-12-24T13:25:57.047Z,0.22
2023-12-24T13:28:27.564Z,0.43
2023-12-24T13:30:54.759Z,0.30
2023-12-24T13:33:21.753Z,1.08
2023-12-24T13:35:49.056Z,0.60
2023-12-24T13:38:21.172Z,0.73
2023-12-24T13:40:48.126Z,0.57
2023-12-24T13:43:15.094Z,1.00
2023-12-24T13:45:41.977Z,0.70
2023-12-24T13:48:09.647Z,0.20
2023-12-24T13:50:38.481Z,0.93
2023-12-24T13:53:15.735Z,0.50
2023-12-24T13:55:51.251Z,1.25
2023-12-24T13:58:18.468Z,0.03
2023-12-24T14:00:45.900Z,0.40
2023-12-24T14:03:12.735Z,0.10
2023-12-24T14:05:41.245Z,2.20
2023-12-24T14:08:08.311Z,0.43
2023-12-24T14:10:34.943Z,0.35
2023-12-24T14:13:01.764Z,0.40
2023-12-24T14:15:28.435Z,0.25
2023-12-24T14:17:55.277Z,0.10
2023-12-24T14:20:22.963Z,0.22
2023-12-24T14:22:49.677Z,0.20
2023-12-24T14:25:16.329Z,0.45
2023-12-24T14:27:42.938Z,1.17
2023-12-24T14:30:11.397Z,0.40
2023-12-24T14:32:38.625Z,0.40
2023-12-24T14:35:05.722Z,0.20
2023-12-24T14:37:32.442Z,0.95
2023-12-24T14:39:59.019Z,0.40
2023-12-24T14:42:25.662Z,0.10
2023-12-24T14:44:52.282Z,0.10
2023-12-24T14:47:20.073Z,0.20
2023-12-24T14:49:46.760Z,0.10
2023-12-24T14:52:14.091Z,0.25
2023-12-24T14:54:41.296Z,0.75
2023-12-24T14:57:07.918Z,0.30
2023-12-24T14:59:34.539Z,0.10
2023-12-24T15:02:01.978Z,0.38
2023-12-24T15:04:28.724Z,0.35
2023-12-24T15:06:56.710Z,0.17
2023-12-24T15:09:23.341Z,0.30
2023-12-24T15:11:49.953Z,0.20
2023-12-24T15:14:16.768Z,0.32
2023-12-24T15:16:43.785Z,1.25
2023-12-24T15:19:10.571Z,0.10
2023-12-24T15:21:37.348Z,0.50
2023-12-24T15:24:04.509Z,0.47
2023-12-24T15:26:33.728Z,0.20
2023-12-24T15:29:01.109Z,0.65
2023-12-24T15:31:28.828Z,0.30
2023-12-24T15:33:55.622Z,0.40
2023-12-24T15:36:22.297Z,0.98
2023-12-24T15:38:49.260Z,0.60
2023-12-24T15:41:16.983Z,0.30
2023-12-24T15:43:46.189Z,0.20
2023-12-24T15:46:13.391Z,0.38
2023-12-24T15:48:40.203Z,0.43
2023-12-24T15:51:07.658Z,0.20
2023-12-24T15:53:34.467Z,0.20
2023-12-24T15:56:01.893Z,0.10
2023-12-24T15:58:28.725Z,0.32
2023-12-24T16:00:55.383Z,0.30
2023-12-24T16:03:22.085Z,0.25
2023-12-24T16:05:48.949Z,0.45
2023-12-24T16:08:15.742Z,0.40
2023-12-24T16:10:42.493Z,0.20
2023-12-24T16:13:09.138Z,0.20
2023-12-24T16:15:37.530Z,0.75
2023-12-24T16:18:05.046Z,0.25
2023-12-24T16:20:31.941Z,0.40
2023-12-24T16:22:58.630Z,1.40
2023-12-24T16:25:27.481Z,0.90
2023-12-24T16:27:54.126Z,0.20
2023-12-24T16:30:20.931Z,0.17
2023-12-24T16:32:48.764Z,0.20
2023-12-24T16:35:15.923Z,0.20
2023-12-24T16:37:46.223Z,0.22
2023-12-24T16:40:13.744Z,0.70
2023-12-24T16:42:41.704Z,0.30
2023-12-24T16:45:09.013Z,0.45
2023-12-24T16:47:36.043Z,0.30
2023-12-24T16:50:03.415Z,0.40
2023-12-24T16:52:30.277Z,0.30
2023-12-24T16:54:56.843Z,2.53
2023-12-24T16:57:23.470Z,0.20
2023-12-24T16:59:50.174Z,0.40
2023-12-24T17:02:17.039Z,0.40
2023-12-24T17:04:43.758Z,0.38
2023-12-24T17:07:10.459Z,0.52
2023-12-24T17:09:37.244Z,0.35
2023-12-24T17:12:06.046Z,0.63
2023-12-24T17:14:32.739Z,0.70
2023-12-24T17:16:59.409Z,0.90
2023-12-24T17:19:26.228Z,0.60
2023-12-24T17:21:53.043Z,0.38
2023-12-24T17:24:19.622Z,0.73
2023-12-24T17:26:46.604Z,0.60
2023-12-24T17:29:13.476Z,0.57
2023-12-24T17:31:40.096Z,0.30
2023-12-24T17:34:07.374Z,0.45
2023-12-24T17:36:34.157Z,0.43
2023-12-24T17:39:00.953Z,2.20
2023-12-24T17:41:27.958Z,0.50
2023-12-24T17:43:54.628Z,1.60
2023-12-24T17:46:21.807Z,1.88
2023-12-24T17:48:49.108Z,3.45
2023-12-24T17:51:15.979Z,0.57
2023-12-24T17:53:42.633Z,0.65
2023-12-24T17:56:09.281Z,0.80
2023-12-24T17:58:36.215Z,0.47
2023-12-24T18:01:02.900Z,0.95
2023-12-24T18:03:29.640Z,0.63
2023-12-24T18:05:56.388Z,1.83
2023-12-24T18:08:23.216Z,0.70
2023-12-24T18:10:50.198Z,0.50
2023-12-24T18:13:16.783Z,0.77
2023-12-24T18:15:43.501Z,0.60
2023-12-24T18:18:10.335Z,1.00
2023-12-24T18:20:37.264Z,1.38
2023-12-24T18:23:04.111Z,1.92
2023-12-24T18:25:30.749Z,0.35
2023-12-24T18:27:58.795Z,1.63
2023-12-24T18:30:25.873Z,2.50
2023-12-24T18:32:53.024Z,2.08
2023-12-24T18:35:20.033Z,0.70
2023-12-24T18:37:46.776Z,0.70
2023-12-24T18:40:13.630Z,0.95
2023-12-24T18:42:40.184Z,0.60
2023-12-24T18:45:07.579Z,1.75
2023-12-24T18:47:34.199Z,1.13
2023-12-24T18:50:00.866Z,0.88
2023-12-24T18:52:29.485Z,1.60
2023-12-24T18:54:56.704Z,0.88
2023-12-24T18:57:23.334Z,0.73
2023-12-24T18:59:50.774Z,0.55
2023-12-24T19:02:17.491Z,0.65
2023-12-24T19:04:45.026Z,3.47
2023-12-24T19:07:11.828Z,0.60
2023-12-24T19:09:38.489Z,0.88
2023-12-24T19:12:05.348Z,1.00
2023-12-24T19:14:32.026Z,2.78
2023-12-24T19:16:58.700Z,2.40
2023-12-24T19:19:25.593Z,0.65
2023-12-24T19:21:52.367Z,1.77
2023-12-24T19:24:23.726Z,2.25
2023-12-24T19:26:50.526Z,1.73
2023-12-24T19:29:17.321Z,1.35
2023-12-24T19:31:43.979Z,2.17
2023-12-24T19:34:10.611Z,4.20
2023-12-24T19:36:37.335Z,3.42
2023-12-24T19:39:04.036Z,2.08
2023-12-24T19:41:30.716Z,4.13
2023-12-24T19:43:57.369Z,2.22
2023-12-24T19:46:26.285Z,2.47
2023-12-24T19:48:54.440Z,2.03
2023-12-24T19:51:22.211Z,3.20
2023-12-24T19:53:49.227Z,1.63
2023-12-24T19:56:18.661Z,2.28
2023-12-24T19:58:46.162Z,3.28
2023-12-24T20:01:13.515Z,3.30
2023-12-24T20:03:40.472Z,2.08
2023-12-24T20:06:07.446Z,4.85
2023-12-24T20:08:34.187Z,2.03
2023-12-24T20:11:00.911Z,3.35
2023-12-24T20:13:27.650Z,2.00
2023-12-24T20:15:54.350Z,3.00
2023-12-24T20:18:21.148Z,5.53
2023-12-24T20:20:47.836Z,2.55
2023-12-24T20:23:15.865Z,3.72
2023-12-24T20:25:42.680Z,1.52
2023-12-24T20:28:10.056Z,4.35
2023-12-24T20:30:36.662Z,2.17
2023-12-24T20:33:03.624Z,2.55
2023-12-24T20:35:30.341Z,1.00
2023-12-24T20:37:56.930Z,0.82
2023-12-24T20:40:23.569Z,2.42
2023-12-24T20:42:50.502Z,1.88
2023-12-24T20:45:17.419Z,1.17
2023-12-24T20:47:44.212Z,1.75
2023-12-24T20:50:11.034Z,2.58
2023-12-24T20:52:37.673Z,2.15
2023-12-24T20:55:04.709Z,3.10
2023-12-24T20:57:31.360Z,2.72
2023-12-24T20:59:59.125Z,2.03
2023-12-24T21:02:26.163Z,1.75
2023-12-24T21:04:53.181Z,4.03
2023-12-24T21:07:19.877Z,3.67
2023-12-24T21:09:46.525Z,7.70
2023-12-24T21:12:13.139Z,1.92
2023-12-24T21:14:39.819Z,2.55
2023-12-24T21:17:06.526Z,3.15
2023-12-24T21:19:33.215Z,3.80
2023-12-24T21:21:59.881Z,3.55
2023-12-24T21:24:26.573Z,2.83
2023-12-24T21:26:53.329Z,4.32
2023-12-24T21:29:20.149Z,2.45
2023-12-24T21:31:47.463Z,1.50
2023-12-24T21:34:14.566Z,4.45
2023-12-24T21:36:42.426Z,2.17
2023-12-24T21:39:09.152Z,2.28
2023-12-24T21:41:40.492Z,4.93
2023-12-24T21:44:07.183Z,6.40
2023-12-24T21:46:33.849Z,1.52
2023-12-24T21:49:00.506Z,4.82
2023-12-24T21:51:27.184Z,5.38
2023-12-24T21:53:53.798Z,12.02
2023-12-24T21:56:20.438Z,2.50
2023-12-24T21:58:47.069Z,2.40
2023-12-24T22:01:22.241Z,4.00
2023-12-24T22:03:55.804Z,7.43
2023-12-24T22:06:22.567Z,3.90
2023-12-24T22:08:49.392Z,6.65
2023-12-24T22:11:16.137Z,4.45
2023-12-24T22:13:42.779Z,1.70
2023-12-24T22:16:17.170Z,4.82
2023-12-24T22:18:44.883Z,2.47
2023-12-24T22:21:12.076Z,2.10
2023-12-24T22:23:39.010Z,6.28
2023-12-24T22:26:08.454Z,2.78
2023-12-24T22:28:36.234Z,1.42
2023-12-24T22:31:05.913Z,4.60
2023-12-24T22:33:34.729Z,2.22
2023-12-24T22:36:01.569Z,3.83
2023-12-24T22:38:28.284Z,2.97
2023-12-24T22:40:55.469Z,2.95
2023-12-24T22:43:22.135Z,2.33
2023-12-24T22:45:51.880Z,3.40
2023-12-24T22:48:19.585Z,1.05
2023-12-24T22:50:46.563Z,2.28
2023-12-24T22:53:14.677Z,2.20
2023-12-24T22:55:41.549Z,2.63
2023-12-24T22:58:08.456Z,4.63
2023-12-24T23:00:35.292Z,5.00
2023-12-24T23:03:02.188Z,1.33
2023-12-24T23:05:29.149Z,2.58
2023-12-24T23:07:56.047Z,2.45
2023-12-24T23:10:23.035Z,4.45
2023-12-24T23:12:49.616Z,2.53
2023-12-24T23:15:16.284Z,2.80
2023-12-24T23:17:43.090Z,4.45
2023-12-24T23:20:10.330Z,5.15
2023-12-24T23:22:36.951Z,3.08
2023-12-24T23:25:04.406Z,3.08
2023-12-24T23:27:31.216Z,2.25
2023-12-24T23:29:58.007Z,4.10
2023-12-24T23:32:25.049Z,1.00
2023-12-24T23:34:52.112Z,3.17
2023-12-24T23:37:19.106Z,3.65
2023-12-24T23:39:45.652Z,2.72
2023-12-24T23:42:12.238Z,5.18
2023-12-24T23:44:38.919Z,2.13
2023-12-24T23:47:05.776Z,4.00
2023-12-24T23:49:32.454Z,2.50
2023-12-24T23:51:59.052Z,1.65
2023-12-24T23:54:25.654Z,3.88
2023-12-24T23:56:52.366Z,2.15
2023-12-24T23:59:22.825Z,6.80
